createdAt,value
2023-02-19T00:03:20.407Z,1.80
2023-02-19T00:07:22.479Z,1.63
2023-02-19T00:11:27.084Z,1.58
2023-02-19T00:15:32.333Z,1.70
2023-02-19T00:19:34.331Z,1.80
2023-02-19T00:23:36.372Z,1.98
2023-02-19T00:27:38.381Z,1.48
2023-02-19T00:31:40.556Z,1.48
2023-02-19T00:35:42.741Z,1.40
2023-02-19T00:39:44.760Z,1.20
2023-02-19T00:43:47.887Z,1.20
2023-02-19T00:47:49.924Z,1.30
2023-02-19T00:51:53.358Z,1.30
2023-02-19T00:55:55.404Z,1.10
2023-02-19T00:59:57.425Z,1.08
2023-02-19T01:03:59.562Z,0.90
2023-02-19T01:08:01.588Z,1.20
2023-02-19T01:12:07.238Z,1.23
2023-02-19T01:16:12.237Z,1.13
2023-02-19T01:20:14.365Z,1.08
2023-02-19T01:24:16.674Z,1.20
2023-02-19T01:28:18.659Z,0.90
2023-02-19T01:32:20.722Z,1.10
2023-02-19T01:36:23.090Z,0.80
2023-02-19T01:40:26.270Z,0.80
2023-02-19T01:44:28.171Z,0.70
2023-02-19T01:48:37.682Z,0.70
2023-02-19T01:52:39.834Z,0.80
2023-02-19T01:56:44.075Z,0.80
2023-02-19T02:00:46.216Z,0.70
2023-02-19T02:04:48.458Z,0.80
2023-02-19T02:09:11.977Z,0.70
2023-02-19T02:13:14.082Z,0.65
2023-02-19T02:17:42.759Z,0.60
2023-02-19T02:22:28.343Z,0.65
2023-02-19T02:26:34.197Z,0.60
2023-02-19T02:30:56.778Z,0.50
2023-02-19T02:35:05.630Z,0.50
2023-02-19T02:39:12.874Z,0.60
2023-02-19T02:43:15.473Z,0.60
2023-02-19T02:47:37.882Z,0.65
2023-02-19T02:51:50.308Z,0.68
2023-02-19T02:55:57.107Z,0.50
2023-02-19T02:59:59.314Z,0.50
2023-02-19T03:04:09.327Z,0.40
2023-02-19T03:08:20.429Z,0.40
2023-02-19T03:12:45.447Z,0.47
2023-02-19T03:17:07.131Z,0.70
2023-02-19T03:21:10.246Z,0.40
2023-02-19T03:25:43.679Z,0.45
2023-02-19T03:29:51.595Z,0.40
2023-02-19T03:33:58.340Z,0.40
2023-02-19T03:38:07.268Z,0.30
2023-02-19T03:42:15.561Z,0.30
2023-02-19T03:46:33.090Z,0.20
2023-02-19T03:50:49.916Z,0.30
2023-02-19T03:55:13.404Z,0.30
2023-02-19T03:59:41.854Z,0.40
2023-02-19T04:03:52.019Z,0.28
2023-02-19T04:07:58.992Z,0.30
2023-02-19T04:12:07.093Z,0.10
2023-02-19T04:16:17.612Z,0.40
2023-02-19T04:20:21.909Z,0.30
2023-02-19T04:24:36.217Z,0.20
2023-02-19T04:28:38.903Z,0.22
2023-02-19T04:32:40.927Z,0.35
2023-02-19T04:36:43.003Z,0.40
2023-02-19T04:40:45.067Z,0.40
2023-02-19T04:44:47.049Z,0.40
2023-02-19T04:48:49.041Z,0.60
2023-02-19T04:52:51.061Z,0.50
2023-02-19T04:56:53.143Z,0.57
2023-02-19T05:00:55.383Z,0.80
2023-02-19T05:04:57.427Z,0.75
2023-02-19T05:08:59.550Z,0.70
2023-02-19T05:13:01.636Z,1.00
2023-02-19T05:17:03.678Z,0.88
2023-02-19T05:21:05.901Z,1.00
2023-02-19T05:25:07.938Z,0.90
2023-02-19T05:29:09.930Z,0.80
2023-02-19T05:33:13.686Z,1.05
2023-02-19T05:37:16.303Z,0.88
2023-02-19T05:41:24.372Z,0.90
2023-02-19T05:45:26.378Z,1.10
2023-02-19T05:49:28.353Z,1.15
2023-02-19T05:53:30.833Z,1.13
2023-02-19T05:57:32.847Z,1.30
2023-02-19T06:01:35.321Z,1.20
2023-02-19T06:05:37.843Z,1.45
2023-02-19T06:09:39.927Z,1.42
2023-02-19T06:13:42.083Z,1.35
2023-02-19T06:17:44.080Z,1.00
2023-02-19T06:21:46.683Z,1.60
2023-02-19T06:25:48.664Z,1.70
2023-02-19T06:29:50.694Z,1.80
2023-02-19T06:33:52.899Z,1.70
2023-02-19T06:37:54.921Z,1.80
2023-02-19T06:41:59.583Z,1.65
2023-02-19T06:46:03.979Z,1.77
2023-02-19T06:50:06.307Z,2.10
2023-02-19T06:54:08.513Z,2.08
2023-02-19T06:58:10.558Z,3.28
2023-02-19T07:02:13.222Z,2.72
2023-02-19T07:06:15.605Z,1.95
2023-02-19T07:10:17.813Z,1.70
2023-02-19T07:14:20.891Z,1.73
2023-02-19T07:18:22.906Z,1.90
2023-02-19T07:22:24.896Z,1.70
2023-02-19T07:26:26.896Z,1.80
2023-02-19T07:30:28.925Z,1.83
2023-02-19T07:34:30.947Z,2.00
2023-02-19T07:38:33.002Z,2.30
2023-02-19T07:42:35.025Z,2.17
2023-02-19T07:46:37.589Z,2.38
2023-02-19T07:50:39.621Z,2.42
2023-02-19T07:54:41.676Z,2.25
2023-02-19T07:58:46.200Z,2.20
2023-02-19T08:03:00.493Z,2.00
2023-02-19T08:07:02.659Z,1.90
2023-02-19T08:11:24.282Z,2.13
2023-02-19T08:15:26.324Z,2.00
2023-02-19T08:19:28.329Z,1.77
2023-02-19T08:23:30.353Z,2.83
2023-02-19T08:27:32.375Z,2.67
2023-02-19T08:31:35.181Z,2.25
2023-02-19T08:35:37.783Z,2.88
2023-02-19T08:39:39.860Z,2.42
2023-02-19T08:43:42.956Z,2.88
2023-02-19T08:47:45.255Z,2.90
2023-02-19T08:51:47.263Z,3.10
2023-02-19T08:55:49.546Z,3.13
2023-02-19T08:59:51.542Z,3.17
2023-02-19T09:03:53.633Z,3.35
2023-02-19T09:07:56.750Z,3.75
2023-02-19T09:11:58.867Z,3.78
2023-02-19T09:16:03.454Z,5.80
2023-02-19T09:20:05.979Z,7.90
2023-02-19T09:24:09.518Z,3.35
2023-02-19T09:28:11.615Z,3.47
2023-02-19T09:32:14.211Z,3.28
2023-02-19T09:36:18.579Z,3.22
2023-02-19T09:40:21.806Z,4.15
2023-02-19T09:44:28.993Z,3.63
2023-02-19T09:48:32.127Z,3.63
2023-02-19T09:52:39.395Z,3.00
2023-02-19T10:00:48.897Z,2.50
2023-02-19T10:04:52.681Z,3.08
2023-02-19T10:09:18.138Z,2.15
2023-02-19T10:13:20.194Z,2.20
2023-02-19T10:17:30.861Z,3.08
2023-02-19T10:21:32.894Z,3.58
2023-02-19T10:25:35.379Z,4.15
2023-02-19T10:29:37.455Z,2.92
2023-02-19T10:33:51.650Z,3.10
2023-02-19T10:37:54.130Z,3.30
2023-02-19T10:41:56.253Z,3.22
2023-02-19T10:46:01.691Z,2.90
2023-02-19T10:50:04.744Z,2.20
2023-02-19T10:54:17.241Z,2.65
2023-02-19T10:58:26.870Z,2.88
2023-02-19T11:02:30.925Z,3.10
2023-02-19T11:06:34.932Z,3.90
2023-02-19T11:10:44.593Z,3.75
2023-02-19T11:14:46.702Z,4.30
2023-02-19T11:18:57.204Z,4.65
2023-02-19T11:23:22.230Z,4.68
2023-02-19T11:27:25.289Z,4.47
2023-02-19T11:31:32.037Z,5.68
2023-02-19T11:35:34.186Z,5.32
2023-02-19T11:39:37.010Z,4.70
2023-02-19T11:43:57.792Z,4.93
2023-02-19T11:48:11.065Z,5.20
2023-02-19T11:52:33.366Z,5.40
2023-02-19T11:56:41.602Z,5.32
2023-02-19T12:01:12.868Z,5.10
2023-02-19T12:05:26.790Z,4.45
2023-02-19T12:09:53.625Z,6.25
2023-02-19T12:14:32.922Z,4.82
2023-02-19T12:19:02.129Z,3.97
2023-02-19T12:23:33.550Z,3.85
2023-02-19T12:28:01.227Z,3.00
2023-02-19T12:32:51.050Z,2.95
2023-02-19T12:37:19.817Z,3.22
2023-02-19T12:41:28.657Z,3.40
2023-02-19T12:45:42.422Z,3.65
2023-02-19T12:49:54.464Z,3.90
2023-02-19T12:54:11.178Z,3.45
2023-02-19T12:58:50.512Z,3.60
2023-02-19T13:03:20.711Z,3.40
2023-02-19T13:07:30.841Z,3.08
2023-02-19T13:11:55.901Z,3.08
2023-02-19T13:16:04.119Z,3.20
2023-02-19T13:20:33.902Z,3.80
2023-02-19T13:24:41.591Z,3.28
2023-02-19T13:29:05.445Z,3.03
2023-02-19T13:33:22.574Z,3.15
2023-02-19T13:37:25.863Z,2.72
2023-02-19T13:41:31.365Z,2.80
2023-02-19T13:45:39.522Z,3.00
2023-02-19T13:49:42.151Z,3.42
2023-02-19T13:53:50.310Z,3.67
2023-02-19T13:57:52.389Z,2.53
2023-02-19T14:01:54.402Z,2.40
2023-02-19T14:06:01.548Z,2.90
2023-02-19T14:10:08.540Z,3.20
2023-02-19T14:14:38.745Z,2.70
2023-02-19T14:18:42.542Z,2.60
2023-02-19T14:22:52.535Z,2.40
2023-02-19T14:26:57.091Z,2.30
2023-02-19T14:31:17.841Z,2.00
2023-02-19T14:35:27.294Z,2.50
2023-02-19T14:39:37.750Z,2.10
2023-02-19T14:43:40.513Z,1.80
2023-02-19T14:47:43.926Z,1.52
2023-02-19T14:51:51.370Z,1.52
2023-02-19T14:55:55.884Z,1.80
2023-02-19T15:00:00.471Z,1.40
2023-02-19T15:04:03.301Z,1.27
2023-02-19T15:08:21.181Z,1.75
2023-02-19T15:12:26.766Z,1.92
2023-02-19T15:16:30.675Z,1.17
2023-02-19T15:20:35.723Z,0.90
2023-02-19T15:24:44.151Z,1.20
2023-02-19T15:28:46.179Z,0.88
2023-02-19T15:32:55.994Z,1.20
2023-02-19T15:37:01.684Z,0.77
2023-02-19T15:41:03.952Z,1.00
2023-02-19T15:45:37.025Z,0.80
2023-02-19T15:49:48.937Z,1.70
2023-02-19T15:53:58.655Z,1.48
2023-02-19T15:58:09.758Z,1.70
2023-02-19T16:02:13.847Z,1.10
2023-02-19T16:06:17.877Z,1.40
2023-02-19T16:10:24.968Z,1.50
2023-02-19T16:14:26.907Z,1.35
2023-02-19T16:18:29.862Z,1.40
2023-02-19T16:22:40.925Z,1.40
2023-02-19T16:26:45.516Z,1.45
2023-02-19T16:30:56.484Z,1.77
2023-02-19T16:34:58.530Z,1.90
2023-02-19T16:39:03.578Z,2.13
2023-02-19T16:43:05.519Z,1.83
2023-02-19T16:47:16.576Z,1.90
2023-02-19T16:51:26.838Z,2.10
2023-02-19T16:55:31.126Z,2.35
2023-02-19T16:59:33.148Z,3.00
2023-02-19T17:03:37.991Z,2.60
2023-02-19T17:07:40.010Z,2.42
2023-02-19T17:11:42.030Z,2.15
2023-02-19T17:15:44.067Z,2.60
2023-02-19T17:19:46.088Z,5.85
2023-02-19T17:23:48.484Z,9.10
2023-02-19T17:27:50.489Z,4.50
2023-02-19T17:31:52.677Z,4.60
2023-02-19T17:35:54.755Z,3.53
2023-02-19T17:39:56.736Z,6.40
2023-02-19T17:43:58.739Z,3.42
2023-02-19T17:48:00.970Z,3.50
2023-02-19T17:52:03.234Z,3.97
2023-02-19T17:56:06.086Z,3.20
2023-02-19T18:00:08.669Z,5.55
2023-02-19T18:04:14.528Z,4.10
2023-02-19T18:08:16.742Z,3.70
2023-02-19T18:12:18.764Z,3.17
2023-02-19T18:16:21.626Z,3.20
2023-02-19T18:20:28.806Z,3.00
2023-02-19T18:24:30.830Z,3.15
2023-02-19T18:28:34.393Z,3.50
2023-02-19T18:32:36.674Z,3.20
2023-02-19T18:36:38.654Z,3.97
2023-02-19T18:40:40.740Z,3.97
2023-02-19T18:44:43.628Z,3.90
2023-02-19T18:48:46.292Z,3.30
2023-02-19T18:52:48.386Z,2.92
2023-02-19T18:56:51.110Z,3.92
2023-02-19T19:00:53.141Z,6.90
2023-02-19T19:04:56.024Z,5.35
2023-02-19T19:09:00.932Z,4.70
2023-02-19T19:13:02.920Z,4.13
2023-02-19T19:17:05.377Z,3.97
2023-02-19T19:21:09.526Z,3.72
2023-02-19T19:25:12.007Z,3.53
2023-02-19T19:29:16.023Z,4.35
2023-02-19T19:33:18.035Z,4.18
2023-02-19T19:37:20.015Z,3.38
2023-02-19T19:41:23.255Z,3.40
2023-02-19T19:45:25.252Z,4.97
2023-02-19T19:49:27.288Z,4.93
2023-02-19T19:53:29.270Z,4.43
2023-02-19T19:57:31.397Z,3.70
2023-02-19T20:01:33.446Z,4.82
2023-02-19T20:05:35.519Z,5.68
2023-02-19T20:09:37.526Z,5.80
2023-02-19T20:13:39.504Z,6.32
2023-02-19T20:17:41.532Z,6.07
2023-02-19T20:21:51.360Z,7.70
2023-02-19T20:25:53.402Z,7.25
2023-02-19T20:29:55.475Z,7.72
2023-02-19T20:33:57.476Z,7.65
2023-02-19T20:37:59.487Z,7.35
2023-02-19T20:42:02.064Z,7.45
2023-02-19T20:46:05.339Z,7.20
2023-02-19T20:50:07.767Z,6.55
2023-02-19T20:54:09.911Z,6.15
2023-02-19T20:58:12.270Z,6.22
2023-02-19T21:02:18.426Z,7.65
2023-02-19T21:06:20.427Z,6.45
2023-02-19T21:10:22.541Z,6.80
2023-02-19T21:14:26.506Z,14.00
2023-02-19T21:18:28.510Z,7.45
2023-02-19T21:22:30.548Z,6.22
2023-02-19T21:26:34.941Z,6.22
2023-02-19T21:30:36.992Z,5.85
2023-02-19T21:34:39.061Z,6.15
2023-02-19T21:38:41.057Z,5.70
2023-02-19T21:42:43.075Z,5.80
2023-02-19T21:46:45.056Z,6.05
2023-02-19T21:50:47.187Z,6.05
2023-02-19T21:54:49.284Z,6.28
2023-02-19T21:58:51.480Z,7.13
2023-02-19T22:02:53.539Z,6.65
2023-02-19T22:06:56.650Z,6.75
2023-02-19T22:10:58.711Z,7.05
2023-02-19T22:15:00.837Z,7.10
2023-02-19T22:19:03.624Z,7.22
2023-02-19T22:23:06.693Z,7.40
2023-02-19T22:27:09.224Z,7.05
2023-02-19T22:31:11.591Z,6.80
2023-02-19T22:35:15.694Z,7.00
2023-02-19T22:39:27.276Z,7.05
2023-02-19T22:43:29.295Z,7.13
2023-02-19T22:47:31.283Z,7.60
2023-02-19T22:51:35.379Z,7.40
2023-02-19T22:55:37.379Z,6.78
2023-02-19T22:59:39.370Z,7.35
2023-02-19T23:03:59.038Z,7.20
2023-02-19T23:08:01.041Z,6.90
2023-02-19T23:12:08.648Z,6.30
2023-02-19T23:16:11.500Z,5.97
2023-02-19T23:20:14.130Z,6.00
2023-02-19T23:24:16.432Z,5.15
2023-02-19T23:28:18.504Z,5.15
2023-02-19T23:32:21.067Z,4.47
2023-02-19T23:36:23.850Z,4.68
2023-02-19T23:40:25.882Z,4.28
2023-02-19T23:44:27.948Z,4.50
2023-02-19T23:48:30.256Z,4.43
2023-02-19T23:52:32.300Z,4.50
2023-02-19T23:56:34.757Z,4.20
